Aérodrome :
LOGIN :

S'inscrire | Disclaimer

   EN    FR    IT 

 










Légende :    VFR   VFR Marginal   IFR   IFR Intensif   IFR Très Intensif
Visi : 
Plafond : 
>= 8 km
>= 3000ft
5 à 8 km
1000 à 3000 ft
1500m à 5 km
500 à 1000 ft
800 à 1500m
200 à 500 ft
< 800m
< 200 ft
Symboles :   Orages  Brouillard  Fortes neiges  Fortes précipitations  Vent > 20 kt
SIGMETs :   Divers  Orages  Givrage  Turbulence  Onde Orograph.  Cendres Volcan.






- Altitude de l'aérodrome : 268 ft
- Code IATA : BFS


EGAA - Belfast Aldergrove

DERNIER METAR :
  • 131750Z 06005KT 9999 -RA BKN021 05/04 Q0991 RERA

METARs EXPIRÉS :
  • 131720Z 08009KT 9999 RA BKN025 05/04 Q0990
  • 131650Z 07010KT 9999 FEW023 BKN034 05/04 Q0990
  • 131620Z 08009KT 9999 FEW035 06/04 Q0990
  • 131550Z 07008KT 9999 FEW020 05/04 Q0990
  • 131520Z 07007KT 9999 FEW020 05/04 Q0990

TAF TAF EGAA
Valide du 13 à 18h jusqu'au 14 à 18h UTC


131654Z 1318/1418 07010KT 9999 FEW018 SCT030
PROB30
TEMPO 1318/1321 7000 SHRA
BECMG 1403/1406 36006KT



MET'MAP, la Météo Aéronautique d'un coup d'oeil ! - Copyright ORBIFLY Décembre 2007 - Disclaimer

ORBIFLY MET'MAP TEAM :

Programmation & Développement : Alexandra Zaïnal
Conception & Développement : Baudouin d'Aumeries
Co-Programmation & Développement : Marc-Olivier Méhu
Soutien technique & logistique : Manuel Goepfert

Contact : metmap@orbifly.com




SOURCES & CREDITS :

   NOAA